You are listening to:
SABE Gnd/Twr/App - Buenos Aires, Argentina

SABE 241800Z 04004KT 350V080 9999 FEW035 BKN200 15/11 Q1023 NOSIG

If stream does not start automatically press the play button